Floral Park, New York
Current Conditions -  °F | °C
As of 7:51 PM on Friday 28 Nov 2014 (Local Time) from KJFK Reporting Station
Few Clouds Few Clouds  
Wind Chill: 20°   Ceiling: Unl
Heat Index: 30°   Visibility: 10mi
Dew Point: 11°   Wind: 14mph
Humidity: 45%   Direction: 340°NNW
Pressure: 30.26"   Gusts: NA
Location:  40.72°N, 73.7°W
Report Text: KJFK 290051Z 34012KT 10SM FEW250 M01/M12 A3026 RMK AO2 SLP248 T10111117
Loading
Personal Weather Stations






























Interactive Weather Map New forecast layout! Learn more

10-Day Weather Forecast

Advertisements
Track Severe Weather on mobile